Time;durP1;ratioP1;P1;durP2;ratioP2;P2;SDS_P1;SDS_P2;PMS_P1;PMS_P2;Temp;Humidity;BMP_temperature;BMP_pressure;BME280_temperature;BME280_humidity;BME280_pressure;Samples;Min_cycle;Max_cycle;Signal;HPM_P1;HPM_P2
2021/06/19 00:01:03;;;;;;;6.30;3.75;;;;;;;25.05;56.36;101236.59;4997503;28;20050;-87
2021/06/19 00:03:29;;;;;;;7.30;3.70;;;;;;;25.07;56.09;101242.66;4979531;28;20037;-91
2021/06/19 00:05:54;;;;;;;4.97;3.53;;;;;;;25.06;56.31;101243.56;4979903;28;20030;-86
2021/06/19 00:08:23;;;;;;;5.38;3.65;;;;;;;25.04;56.00;101232.22;4997179;28;20037;-89
2021/06/19 00:10:48;;;;;;;5.20;3.85;;;;;;;25.03;55.92;101236.63;4965124;28;20054;-92
2021/06/19 00:13:14;;;;;;;6.00;3.67;;;;;;;25.06;55.87;101238.31;4980781;28;20034;-90
2021/06/19 00:15:39;;;;;;;5.30;3.70;;;;;;;25.05;56.26;101239.22;4995452;28;20046;-86
2021/06/19 00:18:05;;;;;;;5.65;3.45;;;;;;;25.05;56.15;101240.09;4994558;28;20032;-86
2021/06/19 00:20:30;;;;;;;4.90;3.67;;;;;;;25.02;56.16;101237.56;4993348;28;20045;-86
2021/06/19 00:22:56;;;;;;;3.85;3.20;;;;;;;25.03;56.11;101241.91;4976753;28;20027;-86
2021/06/19 00:25:24;;;;;;;6.00;3.50;;;;;;;25.05;56.07;101241.88;4992892;28;20052;-86
2021/06/19 00:27:50;;;;;;;4.60;3.55;;;;;;;25.06;55.70;101246.19;4992712;28;20050;-86
2021/06/19 00:30:16;;;;;;;5.03;3.35;;;;;;;25.07;55.87;101245.31;4977783;28;20037;-86
2021/06/19 00:32:43;;;;;;;6.13;3.80;;;;;;;25.03;55.93;101241.91;4994108;28;20026;-86
2021/06/19 00:35:09;;;;;;;4.88;3.40;;;;;;;25.07;55.93;101244.44;4993144;28;20180;-86
2021/06/19 00:37:35;;;;;;;5.47;4.10;;;;;;;25.04;55.96;101238.38;4995855;28;20184;-86
2021/06/19 00:40:05;;;;;;;4.60;3.83;;;;;;;25.02;55.72;101241.94;4980170;28;20393;-86
2021/06/19 00:42:30;;;;;;;6.57;3.85;;;;;;;25.02;55.69;101236.69;4996689;28;20385;-86
2021/06/19 00:44:57;;;;;;;5.15;3.70;;;;;;;25.02;55.93;101239.31;4980102;28;20477;-86
2021/06/19 00:47:24;;;;;;;6.78;3.75;;;;;;;25.02;55.93;101239.31;4998175;28;20478;-86
2021/06/19 00:49:49;;;;;;;5.50;3.67;;;;;;;25.01;55.82;101227.94;4996497;28;20477;-86
2021/06/19 00:52:14;;;;;;;6.22;3.85;;;;;;;25.01;55.51;101233.19;4996357;28;20041;-86
2021/06/19 00:54:40;;;;;;;5.65;3.70;;;;;;;25.01;55.66;101234.97;4996430;28;20027;-86
2021/06/19 00:57:08;;;;;;;4.35;3.63;;;;;;;25.02;55.70;101236.69;4980191;28;20030;-85
2021/06/19 00:59:35;;;;;;;5.53;3.72;;;;;;;24.99;55.67;101227.13;4996828;28;20381;-86
2021/06/19 01:02:00;;;;;;;5.72;4.03;;;;;;;25.00;55.50;101241.19;4996313;28;20030;-86
2021/06/19 01:04:26;;;;;;;5.03;3.60;;;;;;;24.97;55.76;101238.63;4996165;28;20033;-87
2021/06/19 01:06:52;;;;;;;5.75;4.10;;;;;;;24.99;55.98;101239.44;4980106;28;20057;-86
2021/06/19 01:09:17;;;;;;;6.22;3.80;;;;;;;24.97;55.88;101238.63;4997817;28;20485;-87
2021/06/19 01:11:43;;;;;;;5.28;3.72;;;;;;;24.98;55.73;101237.72;4997417;28;20496;-87
2021/06/19 01:14:09;;;;;;;4.72;3.65;;;;;;;24.94;55.81;101236.97;4998535;28;20027;-87
2021/06/19 01:16:35;;;;;;;5.25;3.83;;;;;;;24.98;55.24;101254.38;4998357;28;20120;-87
2021/06/19 01:19:01;;;;;;;6.65;4.05;;;;;;;24.94;55.82;101260.66;4996182;28;20022;-88
2021/06/19 01:21:31;;;;;;;4.57;3.67;;;;;;;24.95;55.34;101265.00;4996697;28;20453;-88
2021/06/19 01:23:57;;;;;;;5.72;3.90;;;;;;;24.93;55.53;101260.69;4996139;28;20018;-87
2021/06/19 01:26:26;;;;;;;5.78;3.60;;;;;;;24.90;55.35;101276.63;4997953;28;20117;-87
2021/06/19 01:28:53;;;;;;;6.50;4.60;;;;;;;24.90;55.24;101264.31;4998443;28;20026;-87
2021/06/19 01:31:19;;;;;;;5.00;4.03;;;;;;;24.89;55.31;101265.22;5001997;28;20108;-88
2021/06/19 01:33:47;;;;;;;6.00;4.60;;;;;;;24.90;55.07;101260.81;5011435;28;20031;-87
2021/06/19 01:36:13;;;;;;;5.60;4.07;;;;;;;24.88;55.37;101262.63;5006145;28;20046;-87
2021/06/19 01:38:45;;;;;;;6.68;4.53;;;;;;;24.87;55.08;101261.78;4999474;28;20069;-87
2021/06/19 01:41:14;;;;;;;5.30;4.30;;;;;;;24.89;55.18;101267.88;4997801;28;20076;-87
2021/06/19 01:43:41;;;;;;;7.30;5.07;;;;;;;24.88;54.87;101260.88;4997237;28;20027;-87
2021/06/19 01:46:07;;;;;;;5.70;4.50;;;;;;;24.86;55.13;101262.69;4995649;28;20037;-88
2021/06/19 01:48:33;;;;;;;9.27;4.75;;;;;;;24.80;54.88;101262.88;4999999;28;20542;-91
2021/06/19 01:50:58;;;;;;;7.10;4.88;;;;;;;24.77;55.03;101253.31;4989024;28;20065;-88
2021/06/19 01:53:23;;;;;;;5.75;4.85;;;;;;;24.76;54.58;101253.38;5005639;28;20113;-93
2021/06/19 01:55:49;;;;;;;5.70;4.55;;;;;;;24.76;54.82;101253.38;5006636;28;20034;-92
2021/06/19 01:58:14;;;;;;;5.68;4.82;;;;;;;24.78;54.59;101265.59;5008897;28;20224;-92
2021/06/19 02:00:40;;;;;;;6.57;4.75;;;;;;;24.76;54.69;101259.50;5007050;28;20050;-94
2021/06/19 02:03:07;;;;;;;6.00;4.82;;;;;;;24.77;54.78;101263.84;4987292;28;20042;-92
2021/06/19 02:05:33;;;;;;;6.57;4.68;;;;;;;24.77;54.54;101266.47;5001276;28;20480;-91
2021/06/19 02:08:02;;;;;;;5.82;5.22;;;;;;;24.76;54.62;101266.53;5006265;28;20069;-87
2021/06/19 02:10:31;;;;;;;5.97;4.40;;;;;;;24.76;54.19;101269.16;5002218;28;20050;-90
2021/06/19 02:12:58;;;;;;;6.18;4.97;;;;;;;24.75;54.18;101276.19;5001863;28;20033;-91
2021/06/19 02:15:25;;;;;;;5.45;4.65;;;;;;;24.75;54.43;101276.19;5000919;28;20023;-88
2021/06/19 02:17:50;;;;;;;8.02;4.88;;;;;;;24.74;54.63;101276.28;5001796;28;20026;-92
2021/06/19 02:20:21;;;;;;;6.05;4.95;;;;;;;24.73;54.16;101282.44;5000880;28;20034;-87
2021/06/19 02:22:46;;;;;;;5.82;5.20;;;;;;;24.71;54.10;101277.19;4999417;28;20113;-91
2021/06/19 02:25:15;;;;;;;7.05;5.18;;;;;;;24.71;54.00;101289.50;5000273;28;20418;-89
2021/06/19 02:27:51;;;;;;;7.30;5.78;;;;;;;24.70;54.10;101288.66;4998590;28;20026;-92
2021/06/19 02:30:19;;;;;;;6.53;5.60;;;;;;;24.73;54.01;101287.69;4999129;28;20026;-89
2021/06/19 02:32:44;;;;;;;7.07;5.32;;;;;;;24.69;53.75;101286.06;4998922;28;20126;-91
2021/06/19 02:35:11;;;;;;;6.03;5.20;;;;;;;24.69;54.20;101288.69;4998321;28;20050;-90
2021/06/19 02:37:37;;;;;;;7.03;5.60;;;;;;;24.72;54.05;101304.41;4999016;28;20042;-91
2021/06/19 02:40:05;;;;;;;6.57;5.65;;;;;;;24.70;53.94;101301.81;4997584;28;20076;-90
2021/06/19 02:42:30;;;;;;;7.88;5.90;;;;;;;24.71;53.97;101294.78;4998517;28;20556;-93
2021/06/19 02:44:56;;;;;;;7.18;5.40;;;;;;;24.69;53.81;101301.84;4966272;28;20065;-92
2021/06/19 02:47:21;;;;;;;8.10;6.15;;;;;;;24.70;53.90;101308.84;4999667;28;20030;-92
2021/06/19 02:49:47;;;;;;;9.40;5.65;;;;;;;24.69;53.59;101305.34;4999293;28;20026;-92
2021/06/19 02:52:12;;;;;;;7.50;6.00;;;;;;;24.64;53.61;101308.13;4982935;28;20050;-88
2021/06/19 02:54:40;;;;;;;7.95;5.97;;;;;;;24.63;53.58;101303.78;4981569;28;20054;-90
2021/06/19 02:57:08;;;;;;;7.78;5.90;;;;;;;24.68;53.66;101313.31;4999258;28;20037;-88
2021/06/19 02:59:33;;;;;;;8.57;6.38;;;;;;;24.66;53.48;101310.72;5001236;28;20548;-89
2021/06/19 03:01:59;;;;;;;7.03;6.13;;;;;;;24.65;53.76;101309.00;5000742;28;20026;-88
2021/06/19 03:04:24;;;;;;;6.88;5.88;;;;;;;24.62;53.58;101307.31;4983651;28;20022;-89
2021/06/19 03:06:50;;;;;;;7.63;6.28;;;;;;;24.64;53.35;101312.53;4982853;28;20038;-89
2021/06/19 03:09:15;;;;;;;8.35;6.13;;;;;;;24.64;53.55;101320.44;4982096;28;20027;-89
2021/06/19 03:11:40;;;;;;;8.32;6.10;;;;;;;24.63;53.33;101316.09;4997422;28;20358;-92
2021/06/19 03:14:06;;;;;;;6.90;6.18;;;;;;;24.61;53.26;101310.88;4997424;28;20026;-93
2021/06/19 03:16:33;;;;;;;7.15;5.75;;;;;;;24.66;53.29;101307.22;4997158;28;20030;-91
2021/06/19 03:18:59;;;;;;;8.52;5.90;;;;;;;24.64;52.96;101315.16;4981487;28;20026;-92
2021/06/19 03:21:24;;;;;;;8.38;6.10;;;;;;;24.59;52.89;101309.19;4997117;28;20489;-93
2021/06/19 03:23:50;;;;;;;6.93;5.68;;;;;;;24.60;53.31;101310.91;4980235;28;20031;-88
2021/06/19 03:26:15;;;;;;;6.20;5.60;;;;;;;24.61;52.79;101315.28;4979895;28;20026;-94
2021/06/19 03:28:40;;;;;;;7.90;5.65;;;;;;;24.60;52.84;101297.75;4996394;28;20027;-90
2021/06/19 03:31:06;;;;;;;5.40;4.90;;;;;;;24.59;52.95;101310.06;4996232;28;20109;-90
2021/06/19 03:33:31;;;;;;;6.90;5.28;;;;;;;24.60;52.61;101314.38;4979299;28;20050;-89
2021/06/19 03:35:57;;;;;;;5.47;4.88;;;;;;;24.56;52.62;101315.41;4979542;28;20366;-89
2021/06/19 03:38:22;;;;;;;5.72;5.13;;;;;;;24.57;52.65;101318.91;4995667;28;20030;-87
2021/06/19 03:40:48;;;;;;;6.43;5.47;;;;;;;24.58;52.63;101323.25;4994981;28;20053;-86
2021/06/19 03:43:13;;;;;;;6.28;5.00;;;;;;;24.58;52.75;101325.88;4995290;28;20026;-88
2021/06/19 03:45:39;;;;;;;5.63;4.97;;;;;;;24.57;52.68;101330.28;4995493;28;20025;-89
2021/06/19 03:48:07;;;;;;;5.35;4.60;;;;;;;24.59;52.50;101327.63;4995225;28;20104;-89
2021/06/19 03:50:33;;;;;;;6.05;4.70;;;;;;;24.55;52.86;101326.84;4980293;28;20031;-91
2021/06/19 03:52:59;;;;;;;5.28;4.60;;;;;;;24.52;52.74;101321.69;4999552;28;20049;-89
2021/06/19 03:55:27;;;;;;;4.95;4.50;;;;;;;24.53;52.62;101330.44;5005167;28;20050;-89
2021/06/19 03:57:58;;;;;;;5.50;4.70;;;;;;;24.55;52.67;101331.25;5012695;28;20072;-90
2021/06/19 04:00:23;;;;;;;5.20;4.57;;;;;;;24.52;52.42;101337.47;5012135;28;20049;-89
2021/06/19 04:02:49;;;;;;;5.72;4.45;;;;;;;24.54;52.36;101337.41;5010436;28;20033;-89
2021/06/19 04:05:17;;;;;;;5.45;4.10;;;;;;;24.53;51.95;101343.59;5007277;28;20077;-89
2021/06/19 04:07:46;;;;;;;5.38;4.55;;;;;;;24.56;52.42;101344.38;5007394;28;20026;-90
2021/06/19 04:10:13;;;;;;;6.13;4.30;;;;;;;24.54;52.44;101340.03;5010499;28;20019;-91
2021/06/19 04:12:39;;;;;;;4.68;4.28;;;;;;;24.54;52.23;101348.81;4988815;28;20500;-91
2021/06/19 04:15:07;;;;;;;4.40;3.97;;;;;;;24.55;52.24;101342.63;4982661;28;20109;-92
2021/06/19 04:17:32;;;;;;;6.18;4.78;;;;;;;24.52;52.13;101340.09;4999822;28;20034;-89
2021/06/19 04:19:58;;;;;;;5.20;4.40;;;;;;;24.51;52.45;101346.25;5004535;28;20030;-91
2021/06/19 04:22:24;;;;;;;5.22;4.40;;;;;;;24.51;51.91;101348.88;5002766;28;20085;-92
2021/06/19 04:24:49;;;;;;;5.20;4.70;;;;;;;24.51;52.04;101346.25;4997673;28;20083;-91
2021/06/19 04:27:18;;;;;;;5.45;4.45;;;;;;;24.52;51.97;101366.41;4995255;28;20037;-90
2021/06/19 04:29:43;;;;;;;5.95;4.72;;;;;;;24.50;52.03;101365.59;4995588;28;20030;-91
2021/06/19 04:32:10;;;;;;;5.45;4.75;;;;;;;24.50;51.61;101369.97;4995480;28;20092;-92
2021/06/19 04:34:41;;;;;;;5.28;4.57;;;;;;;24.48;51.76;101372.66;4996462;28;20078;-91
2021/06/19 04:37:08;;;;;;;5.85;4.65;;;;;;;24.52;52.12;101373.41;4995333;28;20043;-92
2021/06/19 04:39:34;;;;;;;5.10;4.60;;;;;;;24.51;51.88;101380.47;4996043;28;20026;-93
2021/06/19 04:42:05;;;;;;;6.75;4.50;;;;;;;24.52;51.96;101378.69;4996137;28;20049;-90
2021/06/19 04:47:14;;;;;;;5.85;4.75;;;;;;;24.48;52.00;101388.47;4999924;28;20041;-87
2021/06/19 04:49:40;;;;;;;6.68;5.00;;;;;;;24.47;51.68;101399.84;4996623;28;20026;-87
2021/06/19 04:52:05;;;;;;;5.78;4.80;;;;;;;24.50;51.94;101394.53;4995043;28;20034;-86
2021/06/19 04:54:37;;;;;;;5.80;4.80;;;;;;;24.48;51.67;101398.97;4996855;28;20082;-86
2021/06/19 04:57:04;;;;;;;5.72;4.72;;;;;;;24.48;51.48;101400.72;4995688;28;20346;-87
2021/06/19 04:59:31;;;;;;;6.57;5.07;;;;;;;24.52;51.57;101405.00;4996900;28;20433;-86
2021/06/19 05:01:56;;;;;;;6.30;4.90;;;;;;;24.46;51.43;101403.38;4995864;28;20062;-87
2021/06/19 05:04:21;;;;;;;5.43;4.68;;;;;;;24.52;51.25;101399.72;4962646;28;20030;-86
2021/06/19 05:06:47;;;;;;;5.43;4.47;;;;;;;24.55;51.50;101410.19;4996219;28;20491;-85
2021/06/19 05:09:12;;;;;;;5.65;4.68;;;;;;;24.51;51.19;101400.66;4993842;28;20080;-86
2021/06/19 05:11:37;;;;;;;4.90;4.40;;;;;;;24.49;51.33;101405.09;4978118;28;20393;-86
2021/06/19 05:14:03;;;;;;;6.13;4.55;;;;;;;24.51;51.58;101408.53;4994254;28;20025;-86
2021/06/19 05:16:28;;;;;;;5.50;4.40;;;;;;;24.49;51.56;101413.00;4996508;28;20031;-86
2021/06/19 05:18:54;;;;;;;5.65;4.93;;;;;;;24.48;51.38;101424.41;4995749;28;20504;-85
2021/06/19 05:21:19;;;;;;;5.53;4.55;;;;;;;24.48;51.40;101421.78;4994171;28;20563;-86
2021/06/19 05:23:44;;;;;;;5.00;4.50;;;;;;;24.47;51.22;101420.88;4994613;28;20125;-86
2021/06/19 05:26:10;;;;;;;5.55;4.60;;;;;;;24.47;51.61;101423.50;4979778;28;20057;-86
2021/06/19 05:28:35;;;;;;;7.00;4.90;;;;;;;24.49;51.32;101421.72;4980119;28;20117;-86
2021/06/19 05:31:02;;;;;;;6.60;4.72;;;;;;;24.48;51.18;101432.28;4997080;28;20044;-86
2021/06/19 05:33:28;;;;;;;5.78;4.65;;;;;;;24.48;51.34;101434.94;4980249;28;20031;-86
2021/06/19 05:35:53;;;;;;;6.25;4.75;;;;;;;24.47;51.09;101433.19;4995618;28;20037;-86
2021/06/19 05:38:19;;;;;;;5.20;4.57;;;;;;;24.48;51.21;101437.56;4997036;28;20054;-86
2021/06/19 05:40:45;;;;;;;5.28;4.55;;;;;;;24.46;51.04;101437.59;4998920;28;20497;-86
2021/06/19 05:43:11;;;;;;;5.22;4.28;;;;;;;24.46;51.38;101439.38;4981001;28;20034;-86
2021/06/19 05:45:36;;;;;;;6.90;4.50;;;;;;;24.51;51.12;101443.59;4998767;28;20026;-86
2021/06/19 05:48:02;;;;;;;5.88;4.18;;;;;;;24.60;51.28;101463.53;4983211;28;20095;-86
2021/06/19 05:50:27;;;;;;;5.70;4.25;;;;;;;24.62;51.33;101453.81;4998865;28;20035;-86
2021/06/19 05:52:53;;;;;;;4.93;4.10;;;;;;;24.69;50.90;101465.88;4983395;28;20027;-85
2021/06/19 05:55:19;;;;;;;6.80;4.28;;;;;;;24.73;50.91;101467.50;4997482;28;20476;-87
2021/06/19 05:57:44;;;;;;;7.65;4.10;;;;;;;24.77;50.90;101463.88;4995889;28;20030;-86
2021/06/19 06:00:10;;;;;;;6.10;4.07;;;;;;;24.80;50.93;101455.03;4995791;28;20033;-85
2021/06/19 06:02:36;;;;;;;5.43;3.92;;;;;;;24.81;50.94;101460.25;4996184;28;20023;-85
2021/06/19 06:05:01;;;;;;;5.60;4.00;;;;;;;24.80;51.21;101457.66;4995344;28;20027;-86
2021/06/19 06:07:27;;;;;;;6.57;4.30;;;;;;;24.79;51.07;101464.72;4980397;28;20066;-86
2021/06/19 06:09:52;;;;;;;5.97;4.50;;;;;;;24.77;51.30;101468.28;4964284;28;20026;-85
2021/06/19 06:12:18;;;;;;;5.57;4.57;;;;;;;24.78;51.36;101463.00;4997000;28;20030;-88
2021/06/19 06:14:43;;;;;;;4.82;3.90;;;;;;;24.79;51.24;101462.06;4982551;28;20098;-87
2021/06/19 06:17:10;;;;;;;5.60;4.25;;;;;;;24.78;51.34;101467.38;4988771;28;20056;-87
2021/06/19 06:19:35;;;;;;;4.65;4.07;;;;;;;24.77;50.87;101469.16;4998912;28;20046;-87
2021/06/19 06:22:03;;;;;;;6.40;4.40;;;;;;;24.78;51.12;101473.53;5007309;28;20030;-87
2021/06/19 06:24:29;;;;;;;4.85;4.13;;;;;;;24.76;51.30;101462.19;4999100;28;20109;-87
2021/06/19 06:26:54;;;;;;;5.88;4.47;;;;;;;24.80;50.86;101470.81;4980713;28;20112;-87
2021/06/19 06:29:19;;;;;;;5.68;3.95;;;;;;;24.79;50.79;101475.22;4980824;28;20041;-87
2021/06/19 06:31:45;;;;;;;4.07;3.67;;;;;;;24.80;50.76;101469.09;4996413;28;20042;-87
2021/06/19 06:34:10;;;;;;;4.57;3.80;;;;;;;24.82;50.55;101475.16;4996998;28;20030;-87
2021/06/19 06:36:36;;;;;;;4.90;3.90;;;;;;;24.82;50.76;101480.44;4995707;28;20046;-87
2021/06/19 06:39:04;;;;;;;6.07;3.70;;;;;;;24.86;50.63;101485.59;4996012;28;20080;-87
2021/06/19 06:41:30;;;;;;;4.35;3.95;;;;;;;24.76;50.70;101487.63;4996040;28;20087;-86
2021/06/19 06:43:55;;;;;;;4.88;4.32;;;;;;;24.65;50.47;101493.22;4994880;28;20430;-87
2021/06/19 06:46:21;;;;;;;9.23;4.30;;;;;;;24.57;50.36;101496.06;4996404;28;20049;-87
2021/06/19 06:48:48;;;;;;;5.07;3.80;;;;;;;24.54;50.47;101497.91;4979616;28;20037;-86
2021/06/19 06:51:14;;;;;;;5.80;3.70;;;;;;;24.48;50.48;101508.59;4997854;28;20488;-87
2021/06/19 06:53:40;;;;;;;4.70;3.70;;;;;;;24.41;50.35;101498.22;4963286;28;20050;-87
2021/06/19 06:56:05;;;;;;;4.35;3.65;;;;;;;24.40;50.29;101495.63;4978678;28;20089;-87
2021/06/19 06:58:31;;;;;;;7.20;3.50;;;;;;;24.46;49.92;101503.38;4961998;28;20085;-87
2021/06/19 07:00:57;;;;;;;5.57;3.67;;;;;;;24.46;50.17;101499.88;4979304;28;20105;-87
2021/06/19 07:03:23;;;;;;;4.95;3.60;;;;;;;24.42;49.91;101499.94;4995181;28;20138;-86
2021/06/19 07:05:49;;;;;;;5.18;3.72;;;;;;;24.40;49.69;101506.16;4994637;28;20066;-85
2021/06/19 07:08:14;;;;;;;3.97;3.53;;;;;;;24.43;49.42;101513.94;4995999;28;20085;-86
2021/06/19 07:10:39;;;;;;;6.82;3.58;;;;;;;24.43;49.42;101506.94;4994503;28;20034;-86
2021/06/19 07:13:05;;;;;;;7.47;3.50;;;;;;;24.42;49.31;101501.72;4994524;28;20545;-86
2021/06/19 07:15:30;;;;;;;4.18;3.17;;;;;;;24.43;48.68;101514.84;4978069;28;20030;-86
2021/06/19 07:17:56;;;;;;;6.53;3.50;;;;;;;24.36;49.14;101512.41;4995855;28;20440;-86
2021/06/19 07:20:21;;;;;;;7.10;2.92;;;;;;;24.36;48.79;101508.00;4993997;28;20022;-85
2021/06/19 07:22:47;;;;;;;4.13;2.80;;;;;;;24.35;48.80;101510.69;4978033;28;20034;-86
2021/06/19 07:25:13;;;;;;;7.72;2.65;;;;;;;24.36;48.32;101520.28;4993638;28;20026;-86
2021/06/19 07:27:39;;;;;;;4.97;2.80;;;;;;;24.35;48.39;101522.06;4994142;28;20026;-85
2021/06/19 07:30:06;;;;;;;6.28;2.58;;;;;;;24.38;48.18;101526.38;4993963;28;20072;-85
2021/06/19 07:32:32;;;;;;;5.65;3.00;;;;;;;24.34;47.88;101524.72;4978275;28;20034;-86
2021/06/19 07:34:57;;;;;;;8.98;2.88;;;;;;;24.30;47.97;101531.88;4993833;28;20037;-88
2021/06/19 07:37:23;;;;;;;5.38;2.25;;;;;;;24.23;47.67;101533.75;4993932;28;20439;-85
2021/06/19 07:39:48;;;;;;;9.05;2.30;;;;;;;24.28;47.47;101533.66;4977516;28;20046;-86
2021/06/19 07:42:14;;;;;;;5.68;2.20;;;;;;;24.27;47.53;101541.59;4978150;28;20116;-85
2021/06/19 07:44:39;;;;;;;5.38;2.20;;;;;;;24.28;47.29;101545.94;4961783;28;20033;-86
2021/06/19 07:47:05;;;;;;;4.43;2.30;;;;;;;24.31;47.10;101537.97;4992732;28;20542;-87
2021/06/19 07:49:30;;;;;;;6.60;2.72;;;;;;;24.28;47.01;101538.94;4977710;28;20106;-86
2021/06/19 07:52:01;;;;;;;6.30;2.30;;;;;;;24.28;47.30;101533.66;4979517;28;20453;-89
2021/06/19 07:54:30;;;;;;;5.43;2.15;;;;;;;24.30;47.19;101542.38;4996318;28;20057;-89
2021/06/19 07:57:02;;;;;;;6.35;2.28;;;;;;;24.29;46.75;101561.69;4980081;28;20092;-90
2021/06/19 07:59:27;;;;;;;5.32;2.38;;;;;;;24.25;46.94;101554.78;4981954;28;20088;-92
2021/06/19 08:01:53;;;;;;;9.05;2.65;;;;;;;24.23;47.05;101559.22;5000755;28;20026;-90
2021/06/19 08:04:18;;;;;;;12.25;3.40;;;;;;;24.28;46.64;101551.19;5004887;28;20382;-92
2021/06/19 08:06:47;;;;;;;7.43;3.15;;;;;;;24.31;46.54;101557.25;5000080;28;20489;-91
2021/06/19 08:09:12;;;;;;;18.45;3.45;;;;;;;24.29;46.88;101560.81;4984489;28;20124;-91
2021/06/19 08:14:59;;;;;;;10.48;2.75;;;;;;;24.32;46.35;101582.63;4999787;28;20404;-90
2021/06/19 08:17:26;;;;;;;7.75;2.60;;;;;;;24.24;46.48;101589.88;4983938;28;20027;-90
2021/06/19 08:19:54;;;;;;;10.32;2.65;;;;;;;24.40;46.45;101599.09;4998320;28;20030;-92
2021/06/19 08:22:23;;;;;;;7.75;2.55;;;;;;;24.60;45.92;101597.72;4997249;28;20037;-91
2021/06/19 08:24:48;;;;;;;9.85;2.35;;;;;;;24.71;45.85;101595.66;4997878;28;20013;-90
2021/06/19 08:27:14;;;;;;;5.13;2.50;;;;;;;24.79;45.39;101588.41;5000982;28;20030;-93
2021/06/19 08:29:40;;;;;;;9.70;2.72;;;;;;;24.99;44.73;101582.59;5003870;28;20121;-93
2021/06/19 08:35:31;;;;;;;8.13;2.67;;;;;;;25.21;44.41;101584.63;5006230;28;20049;-90
2021/06/19 08:38:05;;;;;;;5.97;2.38;;;;;;;25.18;44.67;101596.09;5010151;28;20034;-90
2021/06/19 08:40:31;;;;;;;5.28;2.50;;;;;;;25.24;44.33;101587.19;5012727;28;20030;-92
2021/06/19 08:42:59;;;;;;;4.65;2.40;;;;;;;25.07;44.51;101581.53;5015273;28;20086;-90
2021/06/19 08:45:30;;;;;;;5.07;2.10;;;;;;;25.00;44.73;101596.63;5009322;28;20141;-89
2021/06/19 08:47:56;;;;;;;6.70;2.10;;;;;;;24.97;44.86;101600.19;5007312;28;20026;-90
2021/06/19 08:50:22;;;;;;;4.32;2.00;;;;;;;24.99;45.05;101594.88;5008228;28;20061;-89
2021/06/19 08:52:47;;;;;;;4.82;2.10;;;;;;;25.05;45.20;101594.72;5005574;28;20034;-91
2021/06/19 08:55:14;;;;;;;4.25;2.05;;;;;;;24.96;45.27;101585.31;4990200;28;20033;-90
2021/06/19 08:57:40;;;;;;;6.30;2.13;;;;;;;24.97;45.20;101588.81;5148240;22;20429;-91
2021/06/19 09:00:09;;;;;;;3.55;1.88;;;;;;;25.03;45.13;101596.53;5011164;28;20038;-91
2021/06/19 09:02:35;;;;;;;3.97;1.83;;;;;;;25.03;45.21;101588.63;5009805;28;20023;-90
2021/06/19 09:05:12;;;;;;;3.58;1.80;;;;;;;25.14;45.10;101590.97;4985108;28;20027;-91
2021/06/19 09:07:51;;;;;;;3.15;1.52;;;;;;;25.18;44.84;101582.06;5003203;28;20077;-93
2021/06/19 09:10:38;;;;;;;3.70;1.60;;;;;;;25.16;44.66;101584.72;5002740;28;20037;-92
2021/06/19 09:13:15;;;;;;;3.20;1.83;;;;;;;25.12;45.18;101584.88;4999682;28;20030;-90
2021/06/19 09:15:55;;;;;;;4.40;1.80;;;;;;;25.17;45.09;101588.22;5000715;28;20023;-89
2021/06/19 09:18:23;;;;;;;3.15;1.60;;;;;;;25.20;44.82;101594.31;5001399;28;20031;-94
2021/06/19 09:20:56;;;;;;;2.15;1.60;;;;;;;25.14;44.92;101588.31;4999725;28;20027;-93
2021/06/19 09:23:40;;;;;;;4.15;1.58;;;;;;;25.13;44.98;101595.38;5005095;28;20023;-90
2021/06/19 09:26:19;;;;;;;5.75;1.70;;;;;;;25.09;45.06;101600.78;5000653;28;20026;-93
2021/06/19 09:29:05;;;;;;;2.80;1.40;;;;;;;25.05;45.27;101597.34;5001110;28;20030;-92
2021/06/19 09:31:48;;;;;;;2.90;1.60;;;;;;;25.05;45.04;101600.00;5000725;28;20041;-94
2021/06/19 09:34:16;;;;;;;3.88;1.80;;;;;;;25.29;44.78;101600.22;5001272;28;20026;-92
2021/06/19 09:36:52;;;;;;;3.60;1.77;;;;;;;25.38;44.40;101599.94;5000956;28;20062;-94
2021/06/19 09:39:27;;;;;;;4.25;1.70;;;;;;;25.37;44.49;101603.44;5003135;28;20026;-90
2021/06/19 09:42:04;;;;;;;2.95;1.65;;;;;;;25.35;44.85;101611.44;4999960;28;20053;-94
2021/06/19 09:44:47;;;;;;;3.70;1.80;;;;;;;25.44;44.64;101624.31;5000043;28;20109;-93
2021/06/19 09:47:17;;;;;;;4.20;1.85;;;;;;;25.42;44.63;101606.84;5001966;28;20373;-91
2021/06/19 09:49:46;;;;;;;3.70;1.63;;;;;;;25.34;44.67;101607.06;5004033;28;20030;-93
2021/06/19 09:52:26;;;;;;;4.13;1.70;;;;;;;25.27;44.89;101604.66;5001354;28;20102;-91
2021/06/19 09:55:00;;;;;;;3.50;1.85;;;;;;;25.21;45.49;101610.97;4986491;28;20124;-91
2021/06/19 09:57:48;;;;;;;3.47;1.90;;;;;;;25.19;45.69;101611.00;4985500;28;20048;-86
2021/06/19 10:00:19;;;;;;;2.95;2.00;;;;;;;25.19;45.81;101595.19;5000576;28;20034;-91
2021/06/19 10:02:46;;;;;;;4.15;1.88;;;;;;;25.14;45.85;101604.97;5002512;28;20042;-93
2021/06/19 10:05:12;;;;;;;4.28;1.90;;;;;;;25.11;45.27;101604.19;5000965;28;20535;-88
2021/06/19 10:07:37;;;;;;;4.03;1.58;;;;;;;25.13;44.88;101613.81;5001539;28;20125;-92
2021/06/19 10:10:11;;;;;;;4.22;1.70;;;;;;;25.25;44.26;101615.22;4984669;28;20033;-92
2021/06/19 10:12:40;;;;;;;5.32;1.75;;;;;;;25.36;43.99;101601.75;5003766;28;20106;-93
2021/06/19 10:15:13;;;;;;;3.75;1.70;;;;;;;25.45;43.55;101604.09;5008266;28;20117;-89
2021/06/19 10:17:46;;;;;;;4.53;1.65;;;;;;;25.65;42.71;101595.56;5009950;28;20101;-89
2021/06/19 10:20:16;;;;;;;4.78;1.60;;;;;;;25.68;42.62;101592.00;4991476;28;20109;-90
2021/06/19 10:22:44;;;;;;;2.72;1.52;;;;;;;25.68;42.92;101592.00;5006787;28;20599;-90
2021/06/19 10:25:13;;;;;;;3.10;1.50;;;;;;;25.67;42.65;101596.38;5005975;28;20088;-89
2021/06/19 10:27:50;;;;;;;3.55;1.40;;;;;;;25.58;43.16;101586.97;5007279;28;20026;-88
2021/06/19 10:30:17;;;;;;;2.72;1.33;;;;;;;25.56;42.75;101596.72;5006634;28;20026;-89
2021/06/19 10:32:47;;;;;;;2.42;1.33;;;;;;;25.61;43.27;101594.81;5007806;28;20022;-86
2021/06/19 10:35:16;;;;;;;4.30;1.40;;;;;;;25.59;43.40;101608.97;5007170;28;20464;-88
2021/06/19 10:37:43;;;;;;;4.55;1.65;;;;;;;25.59;43.47;101601.06;5005026;28;20025;-91
2021/06/19 10:40:24;;;;;;;5.82;1.75;;;;;;;25.15;43.22;101597.94;5004990;28;20049;-89
2021/06/19 10:45:34;;;;;;;2.67;1.20;;;;;;;24.96;43.05;101595.00;5313710;22;20054;-91
2021/06/19 10:50:50;;;;;;;3.15;1.65;;;;;;;24.81;43.00;101596.28;2853093;22;20050;-90
2021/06/19 10:53:41;;;;;;;;;;;;;;;;;;;;;
2021/06/19 11:12:36;;;;;;;5.82;2.28;;;;;;;24.41;43.57;101606.09;4957313;28;20123;-91
2021/06/19 11:15:24;;;;;;;3.40;1.90;;;;;;;24.40;43.79;101611.38;5008848;23;20078;-91
2021/06/19 11:21:57;;;;;;;4.38;1.88;;;;;;;24.26;43.57;101605.59;5263267;23;20081;-91
2021/06/19 11:33:19;;;;;;;8.38;3.42;;;;;;;24.33;43.91;101608.06;5921624;22;20054;-88
2021/06/19 11:36:10;;;;;;;7.03;4.63;;;;;;;24.33;43.62;101601.94;5053173;22;20026;-91
2021/06/19 11:56:43;;;;;;;12.85;5.70;;;;;;;24.20;44.60;101596.97;5011705;28;20095;-92
2021/06/19 11:59:09;;;;;;;9.60;5.43;;;;;;;24.11;44.61;101588.47;5009322;28;20077;-93
2021/06/19 12:01:41;;;;;;;9.55;5.70;;;;;;;24.17;44.77;101594.44;5007679;28;20022;-91
2021/06/19 12:04:11;;;;;;;6.95;5.30;;;;;;;24.18;45.02;101601.41;5005215;28;20038;-92
2021/06/19 12:06:45;;;;;;;8.15;5.15;;;;;;;24.15;44.84;101596.25;5006090;28;20044;-90
2021/06/19 12:09:22;;;;;;;8.40;4.97;;;;;;;24.03;44.57;101589.50;5010235;28;20046;-91
2021/06/19 12:11:51;;;;;;;8.95;4.70;;;;;;;24.14;44.77;101585.75;5014165;22;20026;-90
2021/06/19 12:14:32;;;;;;;7.78;4.25;;;;;;;24.17;44.52;101588.28;5009080;28;20390;-89
2021/06/19 12:17:06;;;;;;;7.22;4.65;;;;;;;24.18;44.59;101585.63;5001364;28;20026;-91
2021/06/19 12:19:33;;;;;;;;;;;;;;;24.28;44.26;101601.16;4986094;28;20027;-89
2021/06/19 12:22:03;;;;;;;6.85;4.50;;;;;;;24.11;44.18;101593.72;5000192;28;19917;-91
2021/06/19 12:24:47;;;;;;;7.35;4.22;;;;;;;24.13;44.44;101599.81;4999104;28;20046;-89
2021/06/19 12:27:15;;;;;;;6.43;4.68;;;;;;;24.04;44.20;101593.03;5001026;28;20069;-89
2021/06/19 12:29:41;;;;;;;6.25;4.40;;;;;;;24.08;44.23;101593.78;5001554;28;20026;-88
2021/06/19 12:32:31;;;;;;;5.38;4.45;;;;;;;24.11;44.11;101591.09;5006670;28;20027;-92